CheckWX is a tool to help pilots better visualize weather data.  It is not intended as a substitute for an official pre-flight weather briefing.

17:23:11 UTC

CYQB TAF
Quebec / Jean Lesage International Airport
Quebec, Canada
TAF CYQB 071138Z 0712/0812 28006KT P6SM FEW040 SCT150 FM071700 25012KT P6SM SCT025 BKN050 TEMPO 0721/0810 4SM -SN BKN020 BKN050 BECMG 0723/0801 25008KT FM081000 25006KT P6SM FEW030 RMK NXT FCST BY 071800Z

Dec-7@
12:00 UTC

Dec-7 @ 12:00 UTC

Dec-7@
17:00 UTC

Dec-7 @ 17:00 UTC

TAF CYQB 071138Z 0712/0812 28006KT P6SM FEW040 SCT150

Expired

Wind
  • 280° at 6 KTS
Cloud Levels
  • Few at 4,000' AGL
  • Scattered at 15,000' AGL

Dec-7@
17:00 UTC

Dec-7 @ 17:00 UTC

Dec-7@
23:00 UTC

Dec-7 @ 23:00 UTC

FM071700 25012KT P6SM SCT025 BKN050

From

From Standard forecast or significant change

Wind
  • 250° at 12 KTS
Cloud Levels
  • Scattered at 2,500' AGL
  • Broken at 5,000' AGL

Dec-7@
21:00 UTC

Dec-7 @ 21:00 UTC

Dec-8@
10:00 UTC

Dec-8 @ 10:00 UTC

TEMPO 0721/0810 4SM -SN BKN020 BKN050

Temporary

Temporary Changes expected for less than half the time period

Conditions
Light Snow
Cloud Levels
  • Broken at 2,000' AGL
  • Broken at 5,000' AGL

Dec-7@
23:00 UTC

Dec-7 @ 23:00 UTC

Dec-8@
10:00 UTC

Dec-8 @ 10:00 UTC

BECMG 0723/0801 25008KT

Becoming

Becoming Conditions expected by Sun, Dec 8, 2019 @ 01:00 UTC

Wind
  • 250° at 8 KTS
Cloud Levels
  • Scattered at 2,500' AGL
  • Broken at 5,000' AGL

Dec-8@
10:00 UTC

Dec-8 @ 10:00 UTC

Dec-8@
12:00 UTC

Dec-8 @ 12:00 UTC

FM081000 25006KT P6SM FEW030 RMK NXT FCST BY 071800Z

From

From Standard forecast or significant change

Wind
  • 250° at 6 KTS
Cloud Levels
  • Few at 3,000' AGL